Terminal Aerodrome Forecast
Issued by NWS Houston/Galveston, TX

Home | Current Version | Previous Version | Text Only | Print | Product List | Glossary On
Versions: 1 2 3 4 5 6 7 8 9 10 11 12 13 14 15 16 17 18 19 20 21 22 23 24 25 26 27 28 29 30 31 32 33 34 35 36 37 38 39 40 41 42 43 44 45 46 47 48
000
FTUS44 KHGX 232321
TAFGLS
TAF
KGLS 232321Z 2400/2424 16012KT 5SM HZ BKN015
     FM240400 16011KT 6SM HZ BKN020
     FM241500 16008KT P6SM BKN030
     FM242000 16010KT 6SM HZ SCT030=

USA.gov is the U.S. government's official web portal to all federal, state and local government web resources and services.